Leonardo Antonio — ILTB2 — position and weather

sailwx.info

Track history (hours):
 
Tides and Currents Weather Stations Pressure Air Temp Water Temp Dewpoint Dewpoint Depression Visibility Wind Speed Wind Dir Waves Ship Positions

Leonardo Antonio

Last reported at 2017-Sep-08 14:21 UTC. Time now 2017-Sep-20 18:38 UTC.
Position N 39°40' E 016°31'.
Warning: this ship's position is 12 days out of date.

Length 23 m; draft 3 m.

Type: Fishing. MMSI: 247133570.

Date/timePositionNaut miles runAvg speedWind from/ knotsBaromVisibWave heightAir tempDewpointWater temp
2017-Sep-08 14:21N 39°40' E 016°31'4 6.6
2017-Sep-08 13:42N 39°42' E 016°36'2 7.8
2017-Sep-08 13:30N 39°43' E 016°38'8 4.0
2017-Sep-08 11:29N 39°46' E 016°47'6 0.7
2017-Sep-08 02:54N 39°51' E 016°51'1 2.3
2017-Sep-08 02:30N 39°51' E 016°52'1 2.4
2017-Sep-08 02:00N 39°50' E 016°53'4 2.5
2017-Sep-08 00:18N 39°47' E 016°57'4 1.8
2017-Sep-07 22:19N 39°50' E 016°54'10 4.9
2017-Sep-07 20:18N 39°46' E 016°42'2 7.8
2017-Sep-07 19:59N 39°45' E 016°39'4 7.4
2017-Sep-07 19:30N 39°42' E 016°36'4 7.5
2017-Sep-07 18:58N 39°40' E 016°32'1 0.1
2017-Sep-07 13:46N 39°40' E 016°31'1 5.1
2017-Sep-07 13:30N 39°40' E 016°33'5 7.4
2017-Sep-07 12:52N 39°42' E 016°38'7 7.5
2017-Sep-07 11:55N 39°44' E 016°47'4 7.1
2017-Sep-07 11:25N 39°45' E 016°52'4 4.0
2017-Sep-07 10:22N 39°46' E 016°57'5 0.6
2017-Sep-07 02:22N 39°50' E 016°53'1 1.6
2017-Sep-07 01:27N 39°51' E 016°51'6 2.0
2017-Sep-06 22:25N 39°46' E 016°56'6 2.7
2017-Sep-06 20:04N 39°51' E 016°51'0 1.3
2017-Sep-06 19:57N 39°51' E 016°51'0 0.4
2017-Sep-06 19:24N 39°51' E 016°51'1 2.5
2017-Sep-06 19:00N 39°51' E 016°52'2 2.4
2017-Sep-06 18:21N 39°49' E 016°53'1 2.4
2017-Sep-06 18:00N 39°49' E 016°54'2 2.5
2017-Sep-06 17:23N 39°47' E 016°55'1 3.4
2017-Sep-06 17:00N 39°47' E 016°56'1 1.1
2017-Sep-06 16:30N 39°46' E 016°57'1 2.4
2017-Sep-06 15:56N 39°47' E 016°56'1 2.4
2017-Sep-06 15:30N 39°48' E 016°55'1 2.3
2017-Sep-06 14:57N 39°49' E 016°54'1 2.4
2017-Sep-06 14:30N 39°50' E 016°53'1 3.0
2017-Sep-06 14:00N 39°51' E 016°51'0 0.3
2017-Sep-06 13:30N 39°51' E 016°51'2 2.5
2017-Sep-06 12:55N 39°50' E 016°53'5 0.6
2017-Sep-06 05:37N 39°46' E 016°57'0 0.8
2017-Sep-06 05:20N 39°46' E 016°57'1 2.2
2017-Sep-06 04:53N 39°47' E 016°56'1 2.6
2017-Sep-06 04:29N 39°48' E 016°55'2 0.3
2017-Sep-05 23:14N 39°46' E 016°57'1 2.5
2017-Sep-05 23:00N 39°47' E 016°56'12 1.2
2017-Sep-05 13:15N 39°44' E 016°41'2 7.9
2017-Sep-05 13:00N 39°45' E 016°43'4 7.9
2017-Sep-05 12:30N 39°47' E 016°47'3 6.5
2017-Sep-05 12:00N 39°49' E 016°51'0 0.2
2017-Sep-05 11:30N 39°49' E 016°51'5 2.2
2017-Sep-05 09:08N 39°46' E 016°57'0 2.0
2017-Sep-05 08:59N 39°46' E 016°57'6 1.9
2017-Sep-05 05:37N 39°51' E 016°51'6 2.5
2017-Sep-05 03:12N 39°46' E 016°57'0 0.5
2017-Sep-05 02:50N 39°46' E 016°57'4 2.3
2017-Sep-05 00:58N 39°50' E 016°53'3 0.2
2017-Sep-04 08:54N 39°47' E 016°56'0 0.1
2017-Sep-04 02:49N 39°47' E 016°56'1 2.3
2017-Sep-04 02:17N 39°48' E 016°55'1 2.4
2017-Sep-04 01:59N 39°48' E 016°54'  
2017-Sep-01 14:29N 39°40' E 016°31'2 5.1
2017-Sep-01 14:00N 39°41' E 016°34'4 7.4
2017-Sep-01 13:30N 39°42' E 016°39'4 7.4
2017-Sep-01 13:00N 39°43' E 016°43'3 6.7
2017-Sep-01 12:30N 39°44' E 016°47'4 7.2
2017-Sep-01 12:00N 39°45' E 016°52'4 7.2
2017-Sep-01 11:30N 39°46' E 016°56'1 1.1
2017-Sep-01 11:00N 39°46' E 016°57'1 2.0
2017-Sep-01 10:30N 39°47' E 016°56'1 2.3
2017-Sep-01 10:01N 39°48' E 016°55'1 2.2
2017-Sep-01 09:28N 39°49' E 016°54'1 2.3
2017-Sep-01 09:00N 39°50' E 016°54'2 3.6
2017-Sep-01 08:30N 39°51' E 016°52'0 0.7
2017-Sep-01 07:45N 39°50' E 016°52'1 2.4
2017-Sep-01 07:29N 39°50' E 016°53'2 2.4
2017-Sep-01 06:42N 39°48' E 016°54'1 2.4
2017-Sep-01 06:06N 39°47' E 016°55'0 2.2
2017-Sep-01 06:00N 39°47' E 016°55'1 1.0
2017-Sep-01 05:09N 39°47' E 016°56'0 2.4
2017-Sep-01 05:00N 39°47' E 016°56'1 2.5
2017-Sep-01 04:30N 39°48' E 016°55'1 2.5
2017-Sep-01 03:59N 39°49' E 016°54'2 2.4
2017-Sep-01 03:22N 39°50' E 016°53'1 3.1
2017-Sep-01 02:56N 39°51' E 016°51'1 1.1
2017-Sep-01 02:25N 39°51' E 016°51'1 2.4
2017-Sep-01 02:01N 39°51' E 016°52'1 2.5
2017-Sep-01 01:30N 39°50' E 016°53'1 2.4
2017-Sep-01 01:00N 39°49' E 016°54'1 2.4
2017-Sep-01 00:30N 39°48' E 016°55'1 2.3
2017-Sep-01 00:00N 39°47' E 016°56'1 2.2
2017-Aug-31 23:30N 39°46' E 016°57'1 2.0
2017-Aug-31 23:00N 39°47' E 016°56'1 2.5
2017-Aug-31 22:30N 39°48' E 016°55'1 2.5
2017-Aug-31 22:00N 39°49' E 016°54'1 2.5
2017-Aug-31 21:30N 39°50' E 016°53'1 2.5
2017-Aug-31 21:00N 39°51' E 016°52'2 4.8
2017-Aug-31 20:30N 39°50' E 016°49'4 7.3
2017-Aug-31 20:00N 39°48' E 016°45'4 7.3
2017-Aug-31 19:30N 39°46' E 016°41'4 7.4
2017-Aug-31 19:00N 39°44' E 016°37'4 7.4
2017-Aug-31 18:25N 39°41' E 016°33'2 0.3
2017-Aug-31 13:17N 39°40' E 016°31'0 0.0
2017-Aug-31 13:00N 39°40' E 016°31'0 0.9
2017-Aug-31 12:30N 39°40' E 016°31'4 7.6
2017-Aug-31 12:01N 39°43' E 016°34'4 7.6
2017-Aug-31 11:30N 39°46' E 016°38'4 7.7
2017-Aug-31 11:00N 39°49' E 016°41'4 7.8
2017-Aug-31 10:30N 39°52' E 016°44'1 2.5
2017-Aug-31 10:00N 39°53' E 016°45'2 3.1
2017-Aug-31 09:22N 39°55' E 016°46'1 2.9
2017-Aug-31 08:58N 39°56' E 016°46'3 3.0
2017-Aug-31 08:03N 39°59' E 016°46'1 2.9
2017-Aug-31 07:50N 39°59' E 016°46'5 2.8
2017-Aug-31 06:09N 40°04' E 016°49'1 7.0
2017-Aug-31 06:00N 40°04' E 016°50'1 1.2
2017-Aug-31 05:06N 40°04' E 016°51'2 2.6
2017-Aug-31 04:10N 40°07' E 016°52'1 2.5
2017-Aug-31 03:57N 40°07' E 016°52'1 2.6
2017-Aug-31 03:30N 40°08' E 016°53'3 2.9
2017-Aug-31 02:27N 40°11' E 016°55'0 0.2
2017-Aug-31 02:00N 40°11' E 016°55'1 1.5
2017-Aug-31 01:30N 40°10' E 016°56'1 2.4
2017-Aug-31 01:01N 40°09' E 016°57'1 2.4
2017-Aug-31 00:30N 40°08' E 016°57'1 2.2
2017-Aug-31 00:00N 40°07' E 016°57'1 2.3
2017-Aug-30 23:30N 40°06' E 016°57'1 2.2
2017-Aug-30 23:00N 40°05' E 016°55'1 2.2
2017-Aug-30 22:30N 40°05' E 016°54'1 1.5
2017-Aug-30 22:00N 40°04' E 016°53'0 0.2
2017-Aug-30 21:30N 40°04' E 016°54'1 2.3
2017-Aug-30 21:00N 40°05' E 016°55'1 2.3
2017-Aug-30 20:30N 40°06' E 016°56'1 2.3
2017-Aug-30 20:00N 40°06' E 016°57'1 2.3
2017-Aug-30 19:30N 40°08' E 016°58'1 2.3
2017-Aug-30 19:00N 40°09' E 016°57'1 2.3
2017-Aug-30 18:30N 40°10' E 016°56'1 2.3
2017-Aug-30 18:00N 40°11' E 016°56'0 0.2
2017-Aug-30 17:30N 40°11' E 016°55'1 2.4
2017-Aug-30 17:00N 40°10' E 016°56'1 2.4
2017-Aug-30 16:30N 40°09' E 016°57'1 2.3
2017-Aug-30 16:00N 40°07' E 016°58'1 2.4
2017-Aug-30 15:30N 40°06' E 016°57'1 2.3
2017-Aug-30 15:00N 40°05' E 016°56'1 2.4
2017-Aug-30 14:30N 40°05' E 016°55'1 2.9
2017-Aug-30 14:00N 40°04' E 016°53'0 0.1
2017-Aug-30 13:30N 40°04' E 016°53'1 2.4
2017-Aug-30 13:00N 40°05' E 016°54'1 2.3
2017-Aug-30 12:30N 40°05' E 016°56'1 2.3
2017-Aug-30 12:00N 40°06' E 016°57'1 2.2
2017-Aug-30 11:30N 40°07' E 016°58'1 2.3
2017-Aug-30 11:00N 40°08' E 016°58'1 2.4
2017-Aug-30 10:30N 40°09' E 016°57'1 2.2
2017-Aug-30 10:00N 40°10' E 016°56'1 2.4
2017-Aug-30 09:30N 40°10' E 016°54'0 0.5
2017-Aug-30 09:00N 40°10' E 016°54'1 2.4
2017-Aug-30 08:30N 40°09' E 016°54'3 2.4
2017-Aug-30 07:10N 40°06' E 016°53'1 2.5
2017-Aug-30 06:48N 40°05' E 016°52'6 1.3
2017-Aug-30 02:25N 40°11' E 016°55'0 0.1
2017-Aug-30 01:59N 40°11' E 016°55'1 1.3
2017-Aug-30 01:29N 40°10' E 016°55'  
Track history (hours):
 
Tides and Currents Weather Stations Pressure Air Temp Water Temp Dewpoint Dewpoint Depression Visibility Wind Speed Wind Dir Waves Ship Positions

Leonardo Antonio

Last reported at 2017-Sep-08 14:21 UTC. Time now 2017-Sep-20 18:38 UTC.
Position N 39°40' E 016°31'.
Warning: this ship's position is 12 days out of date.

Length 23 m; draft 3 m.

Type: Fishing. MMSI: 247133570.

Date/timePositionNaut miles runAvg speedWind from/ knotsBaromVisibWave heightAir tempDewpointWater temp
2017-Sep-08 14:21N 39°40' E 016°31'4 6.6
2017-Sep-08 13:42N 39°42' E 016°36'2 7.8
2017-Sep-08 13:30N 39°43' E 016°38'8 4.0
2017-Sep-08 11:29N 39°46' E 016°47'6 0.7
2017-Sep-08 02:54N 39°51' E 016°51'1 2.3
2017-Sep-08 02:30N 39°51' E 016°52'1 2.4
2017-Sep-08 02:00N 39°50' E 016°53'4 2.5
2017-Sep-08 00:18N 39°47' E 016°57'4 1.8
2017-Sep-07 22:19N 39°50' E 016°54'10 4.9
2017-Sep-07 20:18N 39°46' E 016°42'2 7.8
2017-Sep-07 19:59N 39°45' E 016°39'4 7.4
2017-Sep-07 19:30N 39°42' E 016°36'4 7.5
2017-Sep-07 18:58N 39°40' E 016°32'1 0.1
2017-Sep-07 13:46N 39°40' E 016°31'1 5.1
2017-Sep-07 13:30N 39°40' E 016°33'5 7.4
2017-Sep-07 12:52N 39°42' E 016°38'7 7.5
2017-Sep-07 11:55N 39°44' E 016°47'4 7.1
2017-Sep-07 11:25N 39°45' E 016°52'4 4.0
2017-Sep-07 10:22N 39°46' E 016°57'5 0.6
2017-Sep-07 02:22N 39°50' E 016°53'1 1.6
2017-Sep-07 01:27N 39°51' E 016°51'6 2.0
2017-Sep-06 22:25N 39°46' E 016°56'6 2.7
2017-Sep-06 20:04N 39°51' E 016°51'0 1.3
2017-Sep-06 19:57N 39°51' E 016°51'0 0.4
2017-Sep-06 19:24N 39°51' E 016°51'1 2.5
2017-Sep-06 19:00N 39°51' E 016°52'2 2.4
2017-Sep-06 18:21N 39°49' E 016°53'1 2.4
2017-Sep-06 18:00N 39°49' E 016°54'2 2.5
2017-Sep-06 17:23N 39°47' E 016°55'1 3.4
2017-Sep-06 17:00N 39°47' E 016°56'1 1.1
2017-Sep-06 16:30N 39°46' E 016°57'1 2.4
2017-Sep-06 15:56N 39°47' E 016°56'1 2.4
2017-Sep-06 15:30N 39°48' E 016°55'1 2.3
2017-Sep-06 14:57N 39°49' E 016°54'1 2.4
2017-Sep-06 14:30N 39°50' E 016°53'1 3.0
2017-Sep-06 14:00N 39°51' E 016°51'0 0.3
2017-Sep-06 13:30N 39°51' E 016°51'2 2.5
2017-Sep-06 12:55N 39°50' E 016°53'5 0.6
2017-Sep-06 05:37N 39°46' E 016°57'0 0.8
2017-Sep-06 05:20N 39°46' E 016°57'1 2.2
2017-Sep-06 04:53N 39°47' E 016°56'1 2.6
2017-Sep-06 04:29N 39°48' E 016°55'2 0.3
2017-Sep-05 23:14N 39°46' E 016°57'1 2.5
2017-Sep-05 23:00N 39°47' E 016°56'12 1.2
2017-Sep-05 13:15N 39°44' E 016°41'2 7.9
2017-Sep-05 13:00N 39°45' E 016°43'4 7.9
2017-Sep-05 12:30N 39°47' E 016°47'3 6.5
2017-Sep-05 12:00N 39°49' E 016°51'0 0.2
2017-Sep-05 11:30N 39°49' E 016°51'5 2.2
2017-Sep-05 09:08N 39°46' E 016°57'0 2.0
2017-Sep-05 08:59N 39°46' E 016°57'6 1.9
2017-Sep-05 05:37N 39°51' E 016°51'6 2.5
2017-Sep-05 03:12N 39°46' E 016°57'0 0.5
2017-Sep-05 02:50N 39°46' E 016°57'4 2.3
2017-Sep-05 00:58N 39°50' E 016°53'3 0.2
2017-Sep-04 08:54N 39°47' E 016°56'0 0.1
2017-Sep-04 02:49N 39°47' E 016°56'1 2.3
2017-Sep-04 02:17N 39°48' E 016°55'1 2.4
2017-Sep-04 01:59N 39°48' E 016°54'  
2017-Sep-01 14:29N 39°40' E 016°31'2 5.1
2017-Sep-01 14:00N 39°41' E 016°34'4 7.4
2017-Sep-01 13:30N 39°42' E 016°39'4 7.4
2017-Sep-01 13:00N 39°43' E 016°43'3 6.7
2017-Sep-01 12:30N 39°44' E 016°47'4 7.2
2017-Sep-01 12:00N 39°45' E 016°52'4 7.2
2017-Sep-01 11:30N 39°46' E 016°56'1 1.1
2017-Sep-01 11:00N 39°46' E 016°57'1 2.0
2017-Sep-01 10:30N 39°47' E 016°56'1 2.3
2017-Sep-01 10:01N 39°48' E 016°55'1 2.2
2017-Sep-01 09:28N 39°49' E 016°54'1 2.3
2017-Sep-01 09:00N 39°50' E 016°54'2 3.6
2017-Sep-01 08:30N 39°51' E 016°52'0 0.7
2017-Sep-01 07:45N 39°50' E 016°52'1 2.4
2017-Sep-01 07:29N 39°50' E 016°53'2 2.4
2017-Sep-01 06:42N 39°48' E 016°54'1 2.4
2017-Sep-01 06:06N 39°47' E 016°55'0 2.2
2017-Sep-01 06:00N 39°47' E 016°55'1 1.0
2017-Sep-01 05:09N 39°47' E 016°56'0 2.4
2017-Sep-01 05:00N 39°47' E 016°56'1 2.5
2017-Sep-01 04:30N 39°48' E 016°55'1 2.5
2017-Sep-01 03:59N 39°49' E 016°54'2 2.4
2017-Sep-01 03:22N 39°50' E 016°53'1 3.1
2017-Sep-01 02:56N 39°51' E 016°51'1 1.1
2017-Sep-01 02:25N 39°51' E 016°51'1 2.4
2017-Sep-01 02:01N 39°51' E 016°52'1 2.5
2017-Sep-01 01:30N 39°50' E 016°53'1 2.4
2017-Sep-01 01:00N 39°49' E 016°54'1 2.4
2017-Sep-01 00:30N 39°48' E 016°55'1 2.3
2017-Sep-01 00:00N 39°47' E 016°56'1 2.2
2017-Aug-31 23:30N 39°46' E 016°57'1 2.0
2017-Aug-31 23:00N 39°47' E 016°56'1 2.5
2017-Aug-31 22:30N 39°48' E 016°55'1 2.5
2017-Aug-31 22:00N 39°49' E 016°54'1 2.5
2017-Aug-31 21:30N 39°50' E 016°53'1 2.5
2017-Aug-31 21:00N 39°51' E 016°52'2 4.8
2017-Aug-31 20:30N 39°50' E 016°49'4 7.3
2017-Aug-31 20:00N 39°48' E 016°45'4 7.3
2017-Aug-31 19:30N 39°46' E 016°41'4 7.4
2017-Aug-31 19:00N 39°44' E 016°37'4 7.4
2017-Aug-31 18:25N 39°41' E 016°33'2 0.3
2017-Aug-31 13:17N 39°40' E 016°31'0 0.0
2017-Aug-31 13:00N 39°40' E 016°31'0 0.9
2017-Aug-31 12:30N 39°40' E 016°31'4 7.6
2017-Aug-31 12:01N 39°43' E 016°34'4 7.6
2017-Aug-31 11:30N 39°46' E 016°38'4 7.7
2017-Aug-31 11:00N 39°49' E 016°41'4 7.8
2017-Aug-31 10:30N 39°52' E 016°44'1 2.5
2017-Aug-31 10:00N 39°53' E 016°45'2 3.1
2017-Aug-31 09:22N 39°55' E 016°46'1 2.9
2017-Aug-31 08:58N 39°56' E 016°46'3 3.0
2017-Aug-31 08:03N 39°59' E 016°46'1 2.9
2017-Aug-31 07:50N 39°59' E 016°46'5 2.8
2017-Aug-31 06:09N 40°04' E 016°49'1 7.0
2017-Aug-31 06:00N 40°04' E 016°50'1 1.2
2017-Aug-31 05:06N 40°04' E 016°51'2 2.6
2017-Aug-31 04:10N 40°07' E 016°52'1 2.5
2017-Aug-31 03:57N 40°07' E 016°52'1 2.6
2017-Aug-31 03:30N 40°08' E 016°53'3 2.9
2017-Aug-31 02:27N 40°11' E 016°55'0 0.2
2017-Aug-31 02:00N 40°11' E 016°55'1 1.5
2017-Aug-31 01:30N 40°10' E 016°56'1 2.4
2017-Aug-31 01:01N 40°09' E 016°57'1 2.4
2017-Aug-31 00:30N 40°08' E 016°57'1 2.2
2017-Aug-31 00:00N 40°07' E 016°57'1 2.3
2017-Aug-30 23:30N 40°06' E 016°57'1 2.2
2017-Aug-30 23:00N 40°05' E 016°55'1 2.2
2017-Aug-30 22:30N 40°05' E 016°54'1 1.5
2017-Aug-30 22:00N 40°04' E 016°53'0 0.2
2017-Aug-30 21:30N 40°04' E 016°54'1 2.3
2017-Aug-30 21:00N 40°05' E 016°55'1 2.3
2017-Aug-30 20:30N 40°06' E 016°56'1 2.3
2017-Aug-30 20:00N 40°06' E 016°57'1 2.3
2017-Aug-30 19:30N 40°08' E 016°58'1 2.3
2017-Aug-30 19:00N 40°09' E 016°57'1 2.3
2017-Aug-30 18:30N 40°10' E 016°56'1 2.3
2017-Aug-30 18:00N 40°11' E 016°56'0 0.2
2017-Aug-30 17:30N 40°11' E 016°55'1 2.4
2017-Aug-30 17:00N 40°10' E 016°56'1 2.4
2017-Aug-30 16:30N 40°09' E 016°57'1 2.3
2017-Aug-30 16:00N 40°07' E 016°58'1 2.4
2017-Aug-30 15:30N 40°06' E 016°57'1 2.3
2017-Aug-30 15:00N 40°05' E 016°56'1 2.4
2017-Aug-30 14:30N 40°05' E 016°55'1 2.9
2017-Aug-30 14:00N 40°04' E 016°53'0 0.1
2017-Aug-30 13:30N 40°04' E 016°53'1 2.4
2017-Aug-30 13:00N 40°05' E 016°54'1 2.3
2017-Aug-30 12:30N 40°05' E 016°56'1 2.3
2017-Aug-30 12:00N 40°06' E 016°57'1 2.2
2017-Aug-30 11:30N 40°07' E 016°58'1 2.3
2017-Aug-30 11:00N 40°08' E 016°58'1 2.4
2017-Aug-30 10:30N 40°09' E 016°57'1 2.2
2017-Aug-30 10:00N 40°10' E 016°56'1 2.4
2017-Aug-30 09:30N 40°10' E 016°54'0 0.5
2017-Aug-30 09:00N 40°10' E 016°54'1 2.4
2017-Aug-30 08:30N 40°09' E 016°54'3 2.4
2017-Aug-30 07:10N 40°06' E 016°53'1 2.5
2017-Aug-30 06:48N 40°05' E 016°52'6 1.3
2017-Aug-30 02:25N 40°11' E 016°55'0 0.1
2017-Aug-30 01:59N 40°11' E 016°55'1 1.3
2017-Aug-30 01:29N 40°10' E 016°55'  

Dump ship's entire track history